Skip to main content.
 TIME   TEMPERATURE   WINDSPEED   DIRECTION   HUMIDITY   BAROMETER   RAINFALL 
23:50 16.0°C (60.8°F) 7.4 kmh (4.6 mph) E 82% 1024.0hPa (30.24 inHg) 0.0mm (0.00 in.)
22:50 16.0°C (60.8 °F) 9.3 kmh (5.8 mph) SE 82% 1024.0hPa (30.24 inHg) 0.0mm (0.00 in.)
21:50 17.0°C (62.6 °F) 9.3 kmh (5.8 mph) SSE 72% 1023.0hPa (30.21 inHg) 0.0mm (0.00 in.)
20:50 17.0°C (62.6 °F) 14.8 kmh (9.2 mph) SSE 77% 1023.0hPa (30.21 inHg) 0.0mm (0.00 in.)
19:50 17.0°C (62.6 °F) 13.0 kmh (8.1 mph) SE 77% 1023.0hPa (30.21 inHg) 0.0mm (0.00 in.)
18:50 16.0°C (60.8 °F) 16.7 kmh (10.4 mph) ENE 82% 1023.0hPa (30.21 inHg) 0.0mm (0.00 in.)
17:50 18.0°C (64.4 °F) 11.1 kmh (6.9 mph) ENE 82% 1023.0hPa (30.21 inHg) 0.0mm (0.00 in.)
16:50 20.0°C (68.0 °F) 16.7 kmh (10.4 mph) ESE 77% 1022.0hPa (30.18 inHg) 0.0mm (0.00 in.)
15:50 22.0°C (71.6 °F) 11.1 kmh (6.9 mph) SSE 60% 1022.0hPa (30.18 inHg) 0.0mm (0.00 in.)
14:50 22.0°C (71.6 °F) 9.3 kmh (5.8 mph) SSE 53% 1023.0hPa (30.21 inHg) 0.0mm (0.00 in.)
13:50 20.0°C (68.0 °F) 9.3 kmh (5.8 mph) SSE 68% 1023.0hPa (30.21 inHg) 0.0mm (0.00 in.)
12:50 18.0°C (64.4 °F) 9.3 kmh (5.8 mph) SSE 82% 1023.0hPa (30.21 inHg) 0.0mm (0.00 in.)
11:50 18.0°C (64.4 °F) 5.6 kmh (3.5 mph) S 88% 1023.0hPa (30.21 inHg) 0.0mm (0.00 in.)
10:50 21.0°C (69.8 °F) 14.8 kmh (9.2 mph) SE 64% 1022.0hPa (30.18 inHg) 0.0mm (0.00 in.)
9:50 21.0°C (69.8 °F) 5.6 kmh (3.5 mph) SE 68% 1022.0hPa (30.18 inHg) 0.0mm (0.00 in.)
8:50 21.0°C (69.8 °F) 5.6 kmh (3.5 mph) ESE 68% 1022.0hPa (30.18 inHg) 0.0mm (0.00 in.)
7:50 18.0°C (64.4 °F) 1.9 kmh (1.2 mph) NW 82% 1022.0hPa (30.18 inHg) 0.0mm (0.00 in.)
6:50 16.0°C (60.8 °F) 3.7 kmh (2.3 mph) NW 87% 1021.0hPa (30.15 inHg) 0.0mm (0.00 in.)
5:50 16.0°C (60.8 °F) 5.6 kmh (3.5 mph) ESE 87% 1021.0hPa (30.15 inHg) 0.0mm (0.00 in.)
4:50 17.0°C (62.6 °F) 5.6 kmh (3.5 mph) E 82% 1021.0hPa (30.15 inHg) 0.0mm (0.00 in.)
3:50 17.0°C (62.6 °F) 5.6 kmh (3.5 mph) E 77% 1021.0hPa (30.15 inHg) 0.0mm (0.00 in.)
2:50 18.0°C (64.4 °F) 5.6 kmh (3.5 mph) E 77% 1022.0hPa (30.18 inHg) 0.0mm (0.00 in.)
1:50 18.0°C (64.4 °F) 7.4 kmh (4.6 mph) ESE 82% 1022.0hPa (30.18 inHg) 0.0mm (0.00 in.)
0:50 18.0°C (64.4 °F) 5.6 kmh (3.5 mph) ESE 82% 1022.0hPa (30.18 inHg) 0.0mm (0.00 in.)